Depesze METAR lotnisk w Polsce

METAR – format kodowanego raportu o pogodzie używany w meteorologii lotniczej i prognozie pogody. METAR jest akronimem od ang. Meteorological Aerodrome Report. Typowy METAR zawiera informację o temperaturze, ciśnieniu, temperaturze punktu rosy, sile i kierunku wiatru, opadzie, pokrywie chmur, wysokości podstawy chmur, widzialności, lecz może zawierać też inne informacje (np. stan dróg startowych).

Warszawa-Okęcie (EPWA)

METAR = EPWA 221800Z 21004KT CAVOK 14/11 Q1015 NOSIG

STACJA......... EPWA - Warszawa-Okęcie (WAW)
POMIAR......... Thu Oct 22, 20:00 CEST
WIATR.......... południowo południowo-zachodni  (SSW) z prędkością 7 km/h
WIDZIALNOŚĆ.... powyżej 10 kilometrów
CHMURY......... bezchmurne niebo
TEMPERATURA.... 14°C
T.PUNKTU ROSY.. 11°C
WILGOTNOŚĆ..... 82%
CIŚNIENIE...... 1015 hPa
CIŚN.BEZWZGL... 1002 hPa
PROGNOZA....... bez nagłych zmian w ciągu 2h

Sprawdź też: Prognoza pogody Warszawa

Warszawa-Modlin (EPMO)

METAR = EPMO 221730Z 21007KT CAVOK 14/11 Q1015 =

STACJA......... EPMO - Warszawa-Modlin (WMI)
POMIAR......... Thu Oct 22, 19:30 CEST
WIATR.......... południowo południowo-zachodni  (SSW) z prędkością 13 km/h
WIDZIALNOŚĆ.... powyżej 10 kilometrów
CHMURY......... bezchmurne niebo
TEMPERATURA.... 14°C
T.PUNKTU ROSY.. 11°C
WILGOTNOŚĆ..... 82%
CIŚNIENIE...... 1015 hPa
CIŚN.BEZWZGL... 1003 hPa

Sprawdź też: Prognoza pogody Nowy Dwór Mazowiecki

Kraków-Balice (EPKK)

METAR = EPKK 221800Z 20003KT 150V250 CAVOK 13/10 Q1018

STACJA......... EPKK - Kraków-Balice (KRK)
POMIAR......... Thu Oct 22, 20:00 CEST
WIATR.......... południowo południowo-zachodni  (SSW) z prędkością 6 km/h
WIDZIALNOŚĆ.... powyżej 10 kilometrów
CHMURY......... bezchmurne niebo
TEMPERATURA.... 13°C
T.PUNKTU ROSY.. 10°C
WILGOTNOŚĆ..... 82%
CIŚNIENIE...... 1018 hPa
CIŚN.BEZWZGL... 989 hPa

Sprawdź też: Prognoza pogody Kraków

Łódź-Lublinek (EPLL)

METAR = EPLL 221800Z 20004KT 150V240 CAVOK 14/10 Q1015

STACJA......... EPLL - Łódź-Lublinek (LCJ)
POMIAR......... Thu Oct 22, 20:00 CEST
WIATR.......... południowo południowo-zachodni  (SSW) z prędkością 7 km/h
WIDZIALNOŚĆ.... powyżej 10 kilometrów
CHMURY......... bezchmurne niebo
TEMPERATURA.... 14°C
T.PUNKTU ROSY.. 10°C
WILGOTNOŚĆ..... 77%
CIŚNIENIE...... 1015 hPa
CIŚN.BEZWZGL... 993 hPa

Sprawdź też: Prognoza pogody Łódź

Wrocław-Strachowice (EPWR)

METAR = EPWR 221800Z 23005KT CAVOK 15/09 Q1016

STACJA......... EPWR - Wrocław-Strachowice (WRO)
POMIAR......... Thu Oct 22, 20:00 CEST
WIATR.......... południowo-zachodni (SW) z prędkością 9 km/h
WIDZIALNOŚĆ.... powyżej 10 kilometrów
CHMURY......... bezchmurne niebo
TEMPERATURA.... 15°C
T.PUNKTU ROSY.. 9°C
WILGOTNOŚĆ..... 68%
CIŚNIENIE...... 1016 hPa
CIŚN.BEZWZGL... 1001 hPa

Sprawdź też: Prognoza pogody Wrocław

Katowice-Pyrzowice (EPKT)

METAR = EPKT 221800Z 22008KT CAVOK 13/08 Q1018

STACJA......... EPKT - Katowice-Pyrzowice (KTW)
POMIAR......... Thu Oct 22, 20:00 CEST
WIATR.......... południowo-zachodni (SW) z prędkością 15 km/h
WIDZIALNOŚĆ.... powyżej 10 kilometrów
CHMURY......... bezchmurne niebo
TEMPERATURA.... 13°C
T.PUNKTU ROSY.. 8°C
WILGOTNOŚĆ..... 72%
CIŚNIENIE...... 1018 hPa
CIŚN.BEZWZGL... 982 hPa

Sprawdź też: Prognoza pogody Katowice

Gdańsk (EPGD)

METAR = EPGD 221800Z 22004KT CAVOK 13/10 Q1010

STACJA......... EPGD - Gdańsk im. Lecha Wałęsy (GDN)
POMIAR......... Thu Oct 22, 20:00 CEST
WIATR.......... południowo-zachodni (SW) z prędkością 7 km/h
WIDZIALNOŚĆ.... powyżej 10 kilometrów
CHMURY......... bezchmurne niebo
TEMPERATURA.... 13°C
T.PUNKTU ROSY.. 10°C
WILGOTNOŚĆ..... 82%
CIŚNIENIE...... 1010 hPa
CIŚN.BEZWZGL... 992 hPa

Sprawdź też: Prognoza pogody Gdańsk

Poznań-Ławica (EPPO)

METAR = EPPO 221800Z 22004KT CAVOK 14/11 Q1013

STACJA......... EPPO - Poznań-Ławica (POZ)
POMIAR......... Thu Oct 22, 20:00 CEST
WIATR.......... południowo-zachodni (SW) z prędkością 7 km/h
WIDZIALNOŚĆ.... powyżej 10 kilometrów
CHMURY......... bezchmurne niebo
TEMPERATURA.... 14°C
T.PUNKTU ROSY.. 11°C
WILGOTNOŚĆ..... 82%
CIŚNIENIE...... 1013 hPa
CIŚN.BEZWZGL... 1002 hPa

Sprawdź też: Prognoza pogody Poznań

Rzeszów-Jasionka (EPRZ)

METAR = EPRZ 221800Z 21011KT CAVOK 13/07 Q1019

STACJA......... EPRZ - Rzeszów-Jasionka (RZE)
POMIAR......... Thu Oct 22, 20:00 CEST
WIATR.......... południowo południowo-zachodni  (SSW) z prędkością 20 km/h
WIDZIALNOŚĆ.... powyżej 10 kilometrów
CHMURY......... bezchmurne niebo
TEMPERATURA.... 13°C
T.PUNKTU ROSY.. 7°C
WILGOTNOŚĆ..... 67%
CIŚNIENIE...... 1019 hPa
CIŚN.BEZWZGL... 994 hPa

Sprawdź też: Prognoza pogody Rzeszów

Szczecin-Goleniów (EPSC)

METAR = EPSC 221800Z 17005KT 140V200 CAVOK 15/12 Q1011

STACJA......... EPSC - Szczecin-Goleniów (SZZ)
POMIAR......... Thu Oct 22, 20:00 CEST
WIATR.......... południowy (S) z prędkością 9 km/h
WIDZIALNOŚĆ.... powyżej 10 kilometrów
CHMURY......... bezchmurne niebo
TEMPERATURA.... 15°C
T.PUNKTU ROSY.. 12°C
WILGOTNOŚĆ..... 82%
CIŚNIENIE...... 1011 hPa
CIŚN.BEZWZGL... 1005 hPa

Sprawdź też: Prognoza pogody Szczecin

Lublin-Świdnik (EPLB)

METAR = EPLB 221730Z 22006KT CAVOK 12/12 Q1017 =

STACJA......... EPLB - Lublin-Świdnik (LUZ)
POMIAR......... Thu Oct 22, 19:30 CEST
WIATR.......... południowo-zachodni (SW) z prędkością 11 km/h
WIDZIALNOŚĆ.... powyżej 10 kilometrów
CHMURY......... bezchmurne niebo
TEMPERATURA.... 12°C
T.PUNKTU ROSY.. 12°C
WILGOTNOŚĆ..... 100%
CIŚNIENIE...... 1017 hPa
CIŚN.BEZWZGL... 993 hPa

Sprawdź też: Prognoza pogody Lublin

Bydgoszcz-Szwederowo (EPBY)

METAR = EPBY 221730Z 20007KT CAVOK 14/11 Q1013=

STACJA......... EPBY - Bydgoszcz-Szwederowo (BZG)
POMIAR......... Thu Oct 22, 19:30 CEST
WIATR.......... południowo południowo-zachodni  (SSW) z prędkością 13 km/h
WIDZIALNOŚĆ.... powyżej 10 kilometrów
CHMURY......... bezchmurne niebo
TEMPERATURA.... 14°C
T.PUNKTU ROSY.. 11°C
WILGOTNOŚĆ..... 82%
CIŚNIENIE...... 1013 hPa
CIŚN.BEZWZGL... 1004 hPa

Sprawdź też: Prognoza pogody Bydgoszcz

Zielona Góra-Babimost (EPZG)

METAR = EPZG 221730Z 19007KT CAVOK 15/11 Q1014 =

STACJA......... EPZG - Zielona Góra-Babimost (IEG)
POMIAR......... Thu Oct 22, 19:30 CEST
WIATR.......... południowy (S) z prędkością 13 km/h
WIDZIALNOŚĆ.... powyżej 10 kilometrów
CHMURY......... bezchmurne niebo
TEMPERATURA.... 15°C
T.PUNKTU ROSY.. 11°C
WILGOTNOŚĆ..... 77%
CIŚNIENIE...... 1014 hPa
CIŚN.BEZWZGL... 1007 hPa

Sprawdź też: Prognoza pogody Zielona Góra

Szymany Olsztyn-Mazury (EPSY)

METAR = EPSY 221730Z 20006KT CAVOK 11/09 Q1013=

STACJA......... EPSY - Olsztyn-Mazury (SZY)
POMIAR......... Thu Oct 22, 19:30 CEST
WIATR.......... południowo południowo-zachodni  (SSW) z prędkością 11 km/h
WIDZIALNOŚĆ.... powyżej 10 kilometrów
CHMURY......... bezchmurne niebo
TEMPERATURA.... 11°C
T.PUNKTU ROSY.. 9°C
WILGOTNOŚĆ..... 88%
CIŚNIENIE...... 1013 hPa
CIŚN.BEZWZGL... 996 hPa

Sprawdź też: Prognoza pogody Olsztyn